createdAt,value
2019-03-08T00:02:11.320Z,9.05
2019-03-08T00:04:45.823Z,9.05
2019-03-08T00:07:19.294Z,9.01
2019-03-08T00:09:53.938Z,9.01
2019-03-08T00:12:28.294Z,9.12
2019-03-08T00:15:03.142Z,9.14
2019-03-08T00:17:37.771Z,9.17
2019-03-08T00:20:12.401Z,9.12
2019-03-08T00:22:46.878Z,9.07
2019-03-08T00:25:21.286Z,9.07
2019-03-08T00:27:55.745Z,9.10
2019-03-08T00:30:30.796Z,9.13
2019-03-08T00:33:05.667Z,9.13
2019-03-08T00:35:40.280Z,9.15
2019-03-08T00:38:15.949Z,9.18
2019-03-08T00:40:50.707Z,9.18
2019-03-08T00:43:25.293Z,9.17
2019-03-08T00:46:00.278Z,9.16
2019-03-08T00:48:35.147Z,9.13
2019-03-08T00:51:10.945Z,9.12
2019-03-08T00:53:45.746Z,9.10
2019-03-08T00:56:20.300Z,9.10
2019-03-08T00:58:55.116Z,9.04
2019-03-08T01:01:29.703Z,9.00
2019-03-08T01:04:04.270Z,9.00
2019-03-08T01:06:38.732Z,8.98
2019-03-08T01:09:12.284Z,8.94
2019-03-08T01:11:46.736Z,8.98
2019-03-08T01:14:20.286Z,8.95
2019-03-08T01:16:54.802Z,8.84
2019-03-08T01:19:29.328Z,8.84
2019-03-08T01:22:04.297Z,8.83
2019-03-08T01:24:39.116Z,8.85
2019-03-08T01:27:13.683Z,8.87
2019-03-08T01:29:48.296Z,8.85
2019-03-08T01:32:22.802Z,8.85
2019-03-08T01:34:56.965Z,8.92
2019-03-08T01:37:31.301Z,8.83
2019-03-08T01:40:06.953Z,8.83
2019-03-08T01:42:43.333Z,8.88
2019-03-08T01:45:17.954Z,8.88
2019-03-08T01:47:53.094Z,8.92
2019-03-08T01:50:27.725Z,8.92
2019-03-08T01:53:02.327Z,8.92
2019-03-08T01:55:37.328Z,8.91
2019-03-08T01:58:13.705Z,8.90
2019-03-08T02:00:49.325Z,8.94
2019-03-08T02:03:25.443Z,8.90
2019-03-08T02:06:00.245Z,8.89
2019-03-08T02:08:34.897Z,8.92
2019-03-08T02:11:09.306Z,8.89
2019-03-08T02:13:43.950Z,8.89
2019-03-08T02:16:18.710Z,8.84
2019-03-08T02:18:53.323Z,8.84
2019-03-08T02:21:28.261Z,8.84
2019-03-08T02:24:03.135Z,8.91
2019-03-08T02:26:37.886Z,8.90
2019-03-08T02:29:10.648Z,8.90
2019-03-08T02:31:44.959Z,8.89
2019-03-08T02:34:19.754Z,8.86
2019-03-08T02:36:53.116Z,8.86
2019-03-08T02:39:27.276Z,8.86
2019-03-08T02:42:01.956Z,8.81
2019-03-08T02:44:36.678Z,8.77
2019-03-08T02:47:11.323Z,8.77
2019-03-08T02:49:45.691Z,8.79
2019-03-08T02:52:20.285Z,8.80
2019-03-08T02:54:55.953Z,8.81
2019-03-08T02:57:30.685Z,8.79
2019-03-08T03:00:05.782Z,8.67
2019-03-08T03:02:40.279Z,8.67
2019-03-08T03:05:14.721Z,8.76
2019-03-08T03:07:49.535Z,8.82
2019-03-08T03:10:23.952Z,8.72
2019-03-08T03:12:59.299Z,8.77
2019-03-08T03:15:33.874Z,8.77
2019-03-08T03:18:08.336Z,8.84
2019-03-08T03:20:43.122Z,8.85
2019-03-08T03:23:17.659Z,8.85
2019-03-08T03:25:52.147Z,8.94
2019-03-08T03:28:26.555Z,8.85
2019-03-08T03:30:59.876Z,8.85
2019-03-08T03:33:34.161Z,8.84
2019-03-08T03:36:08.546Z,8.86
2019-03-08T03:38:42.926Z,8.86
2019-03-08T03:41:17.657Z,8.84
2019-03-08T03:43:52.133Z,8.84
2019-03-08T03:46:26.659Z,8.88
2019-03-08T03:49:01.285Z,8.95
2019-03-08T03:51:36.273Z,9.00
2019-03-08T03:54:10.786Z,9.00
2019-03-08T03:56:43.790Z,8.98
2019-03-08T03:59:18.267Z,8.96
2019-03-08T04:01:53.289Z,8.95
2019-03-08T04:04:27.956Z,8.96
2019-03-08T04:07:02.342Z,8.95
2019-03-08T04:09:36.707Z,8.84
2019-03-08T04:12:11.569Z,8.78
2019-03-08T04:14:46.283Z,8.78
2019-03-08T04:17:21.707Z,8.80
2019-03-08T04:19:55.950Z,8.74
2019-03-08T04:22:30.697Z,8.76
2019-03-08T04:25:04.291Z,8.76
2019-03-08T04:27:38.952Z,8.73
2019-03-08T04:30:13.621Z,8.67
2019-03-08T04:32:48.335Z,8.69
2019-03-08T04:35:22.756Z,8.67
2019-03-08T04:37:57.288Z,8.70
2019-03-08T04:40:31.694Z,8.65
2019-03-08T04:43:06.102Z,8.60
2019-03-08T04:45:41.742Z,8.64
2019-03-08T04:48:16.087Z,8.64
2019-03-08T04:50:50.675Z,8.63
2019-03-08T04:53:25.068Z,8.63
2019-03-08T04:55:59.744Z,8.62
2019-03-08T04:58:34.080Z,8.67
2019-03-08T05:01:08.637Z,8.62
2019-03-08T05:03:43.248Z,8.62
2019-03-08T05:06:17.931Z,8.63
2019-03-08T05:08:52.651Z,8.55
2019-03-08T05:11:26.954Z,8.55
2019-03-08T05:14:01.295Z,8.53
2019-03-08T05:16:35.936Z,8.53
2019-03-08T05:19:10.289Z,8.50
2019-03-08T05:21:44.770Z,8.53
2019-03-08T05:24:17.991Z,8.59
2019-03-08T05:26:51.022Z,8.52
2019-03-08T05:29:24.419Z,8.49
2019-03-08T05:31:58.929Z,8.52
2019-03-08T05:34:33.665Z,8.43
2019-03-08T05:37:08.275Z,8.43
2019-03-08T05:39:43.122Z,8.43
2019-03-08T05:42:17.780Z,8.45
2019-03-08T05:44:51.058Z,8.53
2019-03-08T05:47:25.276Z,8.53
2019-03-08T05:49:59.880Z,8.51
2019-03-08T05:52:32.934Z,8.52
2019-03-08T05:55:08.131Z,8.50
2019-03-08T05:57:43.095Z,8.48
2019-03-08T06:00:19.944Z,8.44
2019-03-08T06:02:54.108Z,8.44
2019-03-08T06:05:28.682Z,8.51
2019-03-08T06:08:03.273Z,8.57
2019-03-08T06:10:38.698Z,8.49
2019-03-08T06:13:13.392Z,8.46
2019-03-08T06:15:48.071Z,8.51
2019-03-08T06:18:22.762Z,8.49
2019-03-08T06:20:55.792Z,8.49
2019-03-08T06:23:29.946Z,8.46
2019-03-08T06:26:04.659Z,8.44
2019-03-08T06:28:39.127Z,8.46
2019-03-08T06:31:14.638Z,8.40
2019-03-08T06:33:49.121Z,8.45
2019-03-08T06:36:23.868Z,8.58
2019-03-08T06:38:56.658Z,8.63
2019-03-08T06:41:31.085Z,8.79
2019-03-08T06:46:49.662Z,9.13
2019-03-08T06:49:24.290Z,9.13
2019-03-08T06:52:00.849Z,8.96
2019-03-08T06:54:35.276Z,8.96
2019-03-08T06:57:09.767Z,8.99
2019-03-08T06:59:50.098Z,9.15
2019-03-08T07:02:24.704Z,9.41
2019-03-08T07:04:59.125Z,9.41
2019-03-08T07:07:33.550Z,9.66
2019-03-08T07:10:08.332Z,9.67
2019-03-08T07:12:43.101Z,9.67
2019-03-08T07:15:18.124Z,9.77
2019-03-08T07:17:52.654Z,9.89
2019-03-08T07:20:51.497Z,10.12
2019-03-08T07:23:41.735Z,10.44
2019-03-08T07:26:43.686Z,10.51
2019-03-08T07:29:23.643Z,10.81
2019-03-08T07:32:09.297Z,11.24
2019-03-08T07:34:56.301Z,11.16
2019-03-08T07:37:55.535Z,11.21
2019-03-08T07:40:48.498Z,11.55
2019-03-08T07:43:47.503Z,11.92
2019-03-08T07:46:40.651Z,12.83
2019-03-08T07:49:41.560Z,12.83
2019-03-08T07:52:40.732Z,13.99
2019-03-08T07:55:27.938Z,13.99
2019-03-08T07:58:22.555Z,12.21
2019-03-08T08:01:03.669Z,12.21
2019-03-08T08:03:59.656Z,11.87
2019-03-08T08:06:58.683Z,11.63
2019-03-08T08:09:57.417Z,11.29
2019-03-08T08:12:59.486Z,11.12
2019-03-08T08:15:58.649Z,11.38
2019-03-08T08:18:57.463Z,11.38
2019-03-08T08:21:49.286Z,10.95
2019-03-08T08:24:28.640Z,10.59
2019-03-08T08:27:12.608Z,10.82
2019-03-08T08:30:05.508Z,10.66
2019-03-08T08:32:53.533Z,10.82
2019-03-08T08:35:40.292Z,10.32
2019-03-08T08:38:22.281Z,10.35
2019-03-08T08:41:24.868Z,10.41
2019-03-08T08:44:15.878Z,10.30
2019-03-08T08:47:10.706Z,10.17
2019-03-08T08:50:03.022Z,10.24
2019-03-08T08:52:55.636Z,10.36
2019-03-08T08:55:48.423Z,10.49
2019-03-08T08:58:32.596Z,10.73
2019-03-08T09:01:32.073Z,10.77
2019-03-08T09:04:13.657Z,10.54
2019-03-08T09:07:19.088Z,10.54
2019-03-08T09:10:12.480Z,10.41
2019-03-08T09:12:55.694Z,10.43
2019-03-08T09:15:47.782Z,10.21
2019-03-08T09:18:50.272Z,10.37
2019-03-08T09:21:46.556Z,10.37
2019-03-08T09:24:58.119Z,10.42
2019-03-08T09:27:45.940Z,10.09
2019-03-08T09:30:37.744Z,10.10
2019-03-08T09:33:30.700Z,10.03
2019-03-08T09:36:17.614Z,9.96
2019-03-08T09:39:13.485Z,9.83
2019-03-08T09:42:05.689Z,9.67
2019-03-08T09:45:04.531Z,9.67
2019-03-08T09:47:51.265Z,9.74
2019-03-08T09:50:33.268Z,9.62
2019-03-08T09:53:15.778Z,9.62
2019-03-08T09:56:14.279Z,9.55
2019-03-08T09:59:02.688Z,9.38
2019-03-08T10:01:48.941Z,9.48
2019-03-08T10:04:42.279Z,9.82
2019-03-08T10:07:30.688Z,9.82
2019-03-08T10:10:20.609Z,9.92
2019-03-08T10:13:19.695Z,9.82
2019-03-08T10:16:01.360Z,9.97
2019-03-08T10:19:00.941Z,9.96
2019-03-08T10:22:12.693Z,10.14
2019-03-08T10:25:08.023Z,10.20
2019-03-08T10:27:51.911Z,10.21
2019-03-08T10:30:35.659Z,10.42
2019-03-08T10:33:46.223Z,10.42
2019-03-08T10:36:51.251Z,10.53
2019-03-08T10:39:37.284Z,10.44
2019-03-08T10:42:36.516Z,10.46
2019-03-08T10:45:32.582Z,10.72
2019-03-08T10:48:16.208Z,10.99
2019-03-08T10:51:08.415Z,11.05
2019-03-08T10:54:07.611Z,11.46
2019-03-08T10:57:07.270Z,11.38
2019-03-08T10:59:49.978Z,11.39
2019-03-08T11:02:48.327Z,11.19
2019-03-08T11:05:41.456Z,11.19
2019-03-08T11:08:47.244Z,10.94
2019-03-08T11:11:47.587Z,10.90
2019-03-08T11:14:40.275Z,10.90
2019-03-08T11:17:32.497Z,10.90
2019-03-08T11:20:24.873Z,10.77
2019-03-08T11:23:13.302Z,10.68
2019-03-08T11:26:06.717Z,10.44
2019-03-08T11:29:17.349Z,10.49
2019-03-08T11:32:09.273Z,10.38
2019-03-08T11:35:09.578Z,10.52
2019-03-08T11:38:12.263Z,10.54
2019-03-08T11:41:04.277Z,10.32
2019-03-08T11:43:48.260Z,10.28
2019-03-08T11:46:44.373Z,10.24
2019-03-08T11:49:46.679Z,10.14
2019-03-08T11:52:54.762Z,10.21
2019-03-08T11:55:52.697Z,10.24
2019-03-08T11:58:41.547Z,10.10
2019-03-08T12:01:44.315Z,10.01
2019-03-08T12:04:36.543Z,10.00
2019-03-08T12:07:29.479Z,9.99
2019-03-08T12:10:22.274Z,9.94
2019-03-08T12:13:04.279Z,10.13
2019-03-08T12:16:03.606Z,10.37
2019-03-08T12:18:45.665Z,10.17
2019-03-08T12:21:40.522Z,10.17
2019-03-08T12:24:42.947Z,10.14
2019-03-08T12:27:26.710Z,9.57
2019-03-08T12:30:18.277Z,9.57
2019-03-08T12:32:59.041Z,9.51
2019-03-08T12:35:52.283Z,9.36
2019-03-08T12:38:44.943Z,9.36
2019-03-08T12:41:26.678Z,8.72
2019-03-08T12:44:18.339Z,8.72
2019-03-08T12:47:29.739Z,8.52
2019-03-08T12:50:38.394Z,8.58
2019-03-08T12:53:33.266Z,8.58
2019-03-08T12:56:16.324Z,8.60
2019-03-08T12:59:18.946Z,8.35
2019-03-08T13:02:10.281Z,8.33
2019-03-08T13:04:56.374Z,8.21
2019-03-08T13:07:45.313Z,7.99
2019-03-08T13:10:20.078Z,7.91
2019-03-08T13:12:54.315Z,7.76
2019-03-08T13:15:28.730Z,7.76
2019-03-08T13:18:03.280Z,7.79
2019-03-08T13:20:37.889Z,7.85
2019-03-08T13:23:12.143Z,8.15
2019-03-08T13:25:46.659Z,8.78
2019-03-08T13:28:21.940Z,8.78
2019-03-08T13:30:54.856Z,9.00
2019-03-08T13:33:29.268Z,9.02
2019-03-08T13:36:03.949Z,9.11
2019-03-08T13:38:38.684Z,8.93
2019-03-08T13:41:13.309Z,8.87
2019-03-08T13:43:48.285Z,8.75
2019-03-08T13:46:22.715Z,8.87
2019-03-08T13:48:57.276Z,9.03
2019-03-08T13:51:32.100Z,8.84
2019-03-08T13:54:06.780Z,8.81
2019-03-08T13:56:40.027Z,8.81
2019-03-08T13:59:15.269Z,8.94
2019-03-08T14:01:49.680Z,9.08
2019-03-08T14:04:23.947Z,9.24
2019-03-08T14:06:58.287Z,9.67
2019-03-08T14:09:32.876Z,9.67
2019-03-08T14:12:05.799Z,9.56
2019-03-08T14:14:40.279Z,9.58
2019-03-08T14:17:14.691Z,9.45
2019-03-08T14:19:49.289Z,9.65
2019-03-08T14:22:23.698Z,9.92
2019-03-08T14:24:58.233Z,10.00
2019-03-08T14:27:32.944Z,10.06
2019-03-08T14:30:08.271Z,10.07
2019-03-08T14:32:42.852Z,10.03
2019-03-08T14:35:17.382Z,10.03
2019-03-08T14:37:52.357Z,9.97
2019-03-08T14:41:02.284Z,10.18
2019-03-08T14:43:42.356Z,10.26
2019-03-08T14:46:35.561Z,10.18
2019-03-08T14:49:09.935Z,10.31
2019-03-08T14:51:48.037Z,11.63
2019-03-08T14:54:20.917Z,11.63
2019-03-08T14:56:55.315Z,11.16
2019-03-08T14:59:30.154Z,10.99
2019-03-08T15:02:04.667Z,11.13
2019-03-08T15:04:39.309Z,11.13
2019-03-08T15:07:13.922Z,11.71
2019-03-08T15:09:47.325Z,12.57
2019-03-08T15:12:21.634Z,13.24
2019-03-08T15:14:56.124Z,13.24
2019-03-08T15:17:30.869Z,14.26
2019-03-08T15:20:14.732Z,13.24
2019-03-08T15:22:41.790Z,12.24
2019-03-08T15:25:15.098Z,11.74
2019-03-08T15:27:49.703Z,10.87
2019-03-08T15:30:25.624Z,10.87
2019-03-08T15:33:00.305Z,10.56
2019-03-08T15:35:35.100Z,10.32
2019-03-08T15:38:10.112Z,10.19
2019-03-08T15:40:45.107Z,10.67
2019-03-08T15:43:20.290Z,11.06
2019-03-08T15:45:55.311Z,11.67
2019-03-08T15:48:30.776Z,11.92
2019-03-08T15:51:03.848Z,11.71
2019-03-08T15:53:36.854Z,11.94
2019-03-08T15:56:11.969Z,12.15
2019-03-08T15:58:46.742Z,11.26
2019-03-08T16:01:21.862Z,11.26
2019-03-08T16:03:54.805Z,11.05
2019-03-08T16:06:29.277Z,10.70
2019-03-08T16:09:04.331Z,10.64
2019-03-08T16:11:40.488Z,10.48
2019-03-08T16:14:15.120Z,10.15
2019-03-08T16:16:49.864Z,10.24
2019-03-08T16:19:24.774Z,10.20
2019-03-08T16:21:57.863Z,10.20
2019-03-08T16:26:25.379Z,9.84
2019-03-08T16:28:59.110Z,9.84
2019-03-08T16:31:48.701Z,9.61
2019-03-08T16:34:22.778Z,9.61
2019-03-08T16:37:14.173Z,9.69
2019-03-08T16:39:59.994Z,9.41
2019-03-08T16:42:39.949Z,9.41
2019-03-08T16:45:33.009Z,9.30
2019-03-08T16:48:16.724Z,9.14
2019-03-08T16:51:05.455Z,9.14
2019-03-08T16:53:49.956Z,9.05
2019-03-08T16:56:52.387Z,8.79
2019-03-08T17:00:00.973Z,8.79
2019-03-08T17:02:50.891Z,8.73
2019-03-08T17:05:41.286Z,8.70
2019-03-08T17:08:26.421Z,8.76
2019-03-08T17:11:19.473Z,8.74
2019-03-08T17:14:24.878Z,8.58
2019-03-08T17:17:04.524Z,8.52
2019-03-08T17:19:52.093Z,8.52
2019-03-08T17:22:44.401Z,8.46
2019-03-08T17:25:35.533Z,8.48
2019-03-08T17:28:35.276Z,8.43
2019-03-08T17:31:22.782Z,8.33
2019-03-08T17:34:14.635Z,8.35
2019-03-08T17:36:57.605Z,8.36
2019-03-08T17:39:52.798Z,8.31
2019-03-08T17:42:45.285Z,8.44
2019-03-08T17:45:30.747Z,8.44
2019-03-08T17:48:23.790Z,8.36
2019-03-08T17:51:31.396Z,8.35
2019-03-08T17:54:30.679Z,8.25
2019-03-08T17:57:30.094Z,8.14
2019-03-08T18:00:17.454Z,7.99
2019-03-08T18:03:04.271Z,7.99
2019-03-08T18:06:00.078Z,8.05
2019-03-08T18:08:59.380Z,8.08
2019-03-08T18:11:47.742Z,8.06
2019-03-08T18:14:55.014Z,8.01
2019-03-08T18:17:46.452Z,7.94
2019-03-08T18:20:39.780Z,7.92
2019-03-08T18:23:34.514Z,7.83
2019-03-08T18:26:21.347Z,7.75
2019-03-08T18:29:12.955Z,7.74
2019-03-08T18:31:53.542Z,7.55
2019-03-08T18:34:45.631Z,7.55
2019-03-08T18:37:32.522Z,7.54
2019-03-08T18:40:32.626Z,7.43
2019-03-08T18:43:17.793Z,7.45
2019-03-08T18:46:12.359Z,7.40
2019-03-08T18:48:53.379Z,7.37
2019-03-08T18:51:47.563Z,7.37
2019-03-08T18:54:35.275Z,7.37
2019-03-08T18:57:31.351Z,7.34
2019-03-08T19:00:20.299Z,7.36
2019-03-08T19:03:11.953Z,7.41
2019-03-08T19:06:05.366Z,7.27
2019-03-08T19:08:52.269Z,7.27
2019-03-08T19:11:48.496Z,7.17
2019-03-08T19:14:44.628Z,7.18
2019-03-08T19:17:34.692Z,7.24
2019-03-08T19:20:29.687Z,7.26
2019-03-08T19:23:19.594Z,7.14
2019-03-08T19:26:06.619Z,7.07
2019-03-08T19:29:09.989Z,7.09
2019-03-08T19:32:21.625Z,7.20
2019-03-08T19:35:05.516Z,7.13
2019-03-08T19:38:02.893Z,7.08
2019-03-08T19:40:44.492Z,7.16
2019-03-08T19:43:37.279Z,7.15
2019-03-08T19:46:31.280Z,7.07
2019-03-08T19:49:30.540Z,6.93
2019-03-08T19:52:14.365Z,6.94
2019-03-08T19:55:05.316Z,6.90
2019-03-08T19:58:10.938Z,6.87
2019-03-08T20:01:03.309Z,6.84
2019-03-08T20:03:55.336Z,6.88
2019-03-08T20:06:49.528Z,6.89
2019-03-08T20:09:37.883Z,6.80
2019-03-08T20:12:37.138Z,6.80
2019-03-08T20:15:26.774Z,6.84
2019-03-08T20:18:11.283Z,6.82
2019-03-08T20:21:11.782Z,6.81
2019-03-08T20:24:03.163Z,6.70
2019-03-08T20:26:51.421Z,6.70
2019-03-08T20:29:42.865Z,6.66
2019-03-08T20:32:45.860Z,6.64
2019-03-08T20:35:52.787Z,6.58
2019-03-08T20:38:57.138Z,6.56
2019-03-08T20:41:49.746Z,6.63
2019-03-08T20:44:48.934Z,6.63
2019-03-08T20:47:26.688Z,6.70
2019-03-08T20:50:01.312Z,6.68
2019-03-08T20:52:36.566Z,6.59
2019-03-08T20:55:11.660Z,6.65
2019-03-08T20:57:45.106Z,6.69
2019-03-08T21:00:20.521Z,6.68
2019-03-08T21:02:55.271Z,6.70
2019-03-08T21:05:29.885Z,6.74
2019-03-08T21:08:04.392Z,6.70
2019-03-08T21:10:38.965Z,6.64
2019-03-08T21:13:13.641Z,6.62
2019-03-08T21:15:48.247Z,6.62
2019-03-08T21:18:22.663Z,6.65
2019-03-08T21:20:56.942Z,6.69
2019-03-08T21:23:31.268Z,6.68
2019-03-08T21:26:05.723Z,6.73
2019-03-08T21:28:38.687Z,6.74
2019-03-08T21:31:12.947Z,6.80
2019-03-08T21:33:47.660Z,6.84
2019-03-08T21:36:22.164Z,6.84
2019-03-08T21:38:56.947Z,6.96
2019-03-08T21:41:31.641Z,6.99
2019-03-08T21:44:06.277Z,6.99
2019-03-08T21:46:40.700Z,7.03
2019-03-08T21:49:13.874Z,7.05
2019-03-08T21:51:48.247Z,7.08
2019-03-08T21:54:22.743Z,7.12
2019-03-08T21:56:55.865Z,7.19
2019-03-08T21:59:30.162Z,7.22
2019-03-08T22:02:04.642Z,7.23
2019-03-08T22:04:45.330Z,7.17
2019-03-08T22:07:19.956Z,7.19
2019-03-08T22:10:12.287Z,7.15
2019-03-08T22:12:50.284Z,7.21
2019-03-08T22:15:24.775Z,7.18
2019-03-08T22:19:28.729Z,7.19
2019-03-08T22:22:03.425Z,7.19
2019-03-08T22:24:37.948Z,7.19
2019-03-08T22:27:12.637Z,7.16
2019-03-08T22:29:46.968Z,7.25
2019-03-08T22:32:21.324Z,7.26
2019-03-08T22:34:55.953Z,7.26
2019-03-08T22:37:30.298Z,7.31
2019-03-08T22:40:04.956Z,7.34
2019-03-08T22:42:39.996Z,7.37
2019-03-08T22:45:15.769Z,7.42
2019-03-08T22:47:48.708Z,7.44
2019-03-08T22:50:23.091Z,7.34
2019-03-08T22:52:57.662Z,7.45
2019-03-08T22:55:32.119Z,7.44
2019-03-08T22:58:07.606Z,7.50
2019-03-08T23:01:13.566Z,7.49
2019-03-08T23:03:49.286Z,7.57
2019-03-08T23:06:23.787Z,7.53
2019-03-08T23:08:59.144Z,7.54
2019-03-08T23:11:33.745Z,7.57
2019-03-08T23:14:08.290Z,7.64
2019-03-08T23:16:42.754Z,7.67
2019-03-08T23:19:17.110Z,7.65
2019-03-08T23:21:51.737Z,7.60
2019-03-08T23:24:26.304Z,7.54
2019-03-08T23:27:18.290Z,7.54
2019-03-08T23:30:58.371Z,7.73
2019-03-08T23:33:33.038Z,7.72
2019-03-08T23:36:07.632Z,7.66
2019-03-08T23:38:42.289Z,7.66
2019-03-08T23:41:16.795Z,7.70
2019-03-08T23:43:50.954Z,7.65
2019-03-08T23:46:23.873Z,7.67
2019-03-08T23:48:58.117Z,7.69
2019-03-08T23:51:32.675Z,7.69
2019-03-08T23:54:07.312Z,7.69
2019-03-08T23:56:41.760Z,7.68
2019-03-08T23:59:16.277Z,7.76
